createdAt,value
2018-12-04T00:01:25.441Z,0.40
2018-12-04T00:03:54.839Z,1.20
2018-12-04T00:06:24.190Z,0.20
2018-12-04T00:08:53.519Z,0.42
2018-12-04T00:11:22.957Z,0.53
2018-12-04T00:13:52.450Z,0.30
2018-12-04T00:16:21.816Z,0.82
2018-12-04T00:18:51.304Z,0.72
2018-12-04T00:21:20.774Z,0.30
2018-12-04T00:23:50.184Z,0.60
2018-12-04T00:26:19.595Z,0.33
2018-12-04T00:28:49.099Z,0.30
2018-12-04T00:31:18.538Z,0.20
2018-12-04T00:33:48.017Z,0.35
2018-12-04T00:36:17.555Z,1.98
2018-12-04T00:38:46.931Z,0.30
2018-12-04T00:41:16.418Z,0.42
2018-12-04T00:43:45.797Z,0.80
2018-12-04T00:46:16.106Z,0.42
2018-12-04T00:48:45.586Z,0.20
2018-12-04T00:51:15.028Z,0.40
2018-12-04T00:53:44.508Z,0.33
2018-12-04T00:56:14.687Z,0.17
2018-12-04T00:58:44.146Z,0.40
2018-12-04T01:01:13.561Z,0.30
2018-12-04T01:03:42.945Z,0.30
2018-12-04T01:06:12.374Z,0.80
2018-12-04T01:08:42.649Z,0.40
2018-12-04T01:11:12.012Z,0.47
2018-12-04T01:13:41.456Z,0.20
2018-12-04T01:16:10.807Z,0.20
2018-12-04T01:18:40.360Z,0.13
2018-12-04T01:21:10.224Z,0.20
2018-12-04T01:23:39.595Z,0.20
2018-12-04T01:26:08.988Z,0.10
2018-12-04T01:28:38.488Z,0.30
2018-12-04T01:31:07.946Z,0.15
2018-12-04T01:33:37.396Z,0.35
2018-12-04T01:36:06.874Z,0.68
2018-12-04T01:38:36.211Z,0.25
2018-12-04T01:41:05.575Z,0.50
2018-12-04T01:43:34.905Z,1.80
2018-12-04T01:46:04.424Z,0.57
2018-12-04T01:48:34.046Z,1.45
2018-12-04T01:51:03.427Z,0.68
2018-12-04T01:53:32.750Z,0.40
2018-12-04T01:56:02.232Z,0.55
2018-12-04T01:58:31.758Z,0.72
2018-12-04T02:01:01.256Z,0.68
2018-12-04T02:03:30.691Z,0.80
2018-12-04T02:06:00.164Z,0.20
2018-12-04T02:08:29.589Z,1.75
2018-12-04T02:10:58.974Z,0.53
2018-12-04T02:13:28.440Z,3.12
2018-12-04T02:15:58.409Z,0.93
2018-12-04T02:18:27.835Z,0.88
2018-12-04T02:20:57.237Z,1.47
2018-12-04T02:23:26.643Z,0.42
2018-12-04T02:25:56.115Z,1.12
2018-12-04T02:28:29.673Z,0.60
2018-12-04T02:30:59.143Z,0.50
2018-12-04T02:33:28.657Z,0.33
2018-12-04T02:35:58.091Z,1.00
2018-12-04T02:38:27.473Z,1.60
2018-12-04T02:40:56.971Z,1.00
2018-12-04T02:43:26.450Z,1.30
2018-12-04T02:45:55.994Z,2.85
2018-12-04T02:48:25.542Z,2.17
2018-12-04T02:50:55.054Z,1.50
2018-12-04T02:53:24.554Z,1.12
2018-12-04T02:55:53.910Z,1.10
2018-12-04T02:58:23.247Z,4.03
2018-12-04T03:00:52.630Z,1.12
2018-12-04T03:03:22.116Z,1.17
2018-12-04T03:05:51.587Z,2.30
2018-12-04T03:08:21.153Z,0.80
2018-12-04T03:10:50.524Z,1.15
2018-12-04T03:13:19.938Z,0.37
2018-12-04T03:15:49.470Z,1.05
2018-12-04T03:18:19.646Z,0.93
2018-12-04T03:20:49.129Z,0.30
2018-12-04T03:23:19.563Z,1.50
2018-12-04T03:25:48.983Z,2.00
2018-12-04T03:28:18.395Z,2.08
2018-12-04T03:30:47.905Z,0.82
2018-12-04T03:33:41.091Z,1.52
2018-12-04T03:36:10.639Z,0.62
2018-12-04T03:38:40.063Z,1.65
2018-12-04T03:41:09.579Z,1.95
2018-12-04T03:43:39.902Z,2.72
2018-12-04T03:46:09.434Z,0.78
2018-12-04T03:48:39.050Z,1.45
2018-12-04T03:51:08.616Z,1.40
2018-12-04T03:53:38.048Z,2.45
2018-12-04T03:56:07.576Z,0.30
2018-12-04T03:58:36.878Z,2.30
2018-12-04T04:01:06.875Z,3.05
2018-12-04T04:03:36.362Z,1.15
2018-12-04T04:06:05.778Z,0.85
2018-12-04T04:08:35.226Z,1.45
2018-12-04T04:11:04.698Z,2.95
2018-12-04T04:13:34.087Z,1.32
2018-12-04T04:16:04.149Z,0.70
2018-12-04T04:18:33.477Z,3.85
2018-12-04T04:21:02.928Z,0.98
2018-12-04T04:23:32.980Z,0.62
2018-12-04T04:26:02.435Z,1.00
2018-12-04T04:28:31.887Z,1.22
2018-12-04T04:31:01.282Z,2.75
2018-12-04T04:33:30.715Z,0.70
2018-12-04T04:36:00.111Z,2.20
2018-12-04T04:38:29.432Z,0.93
2018-12-04T04:40:59.032Z,0.65
2018-12-04T04:43:28.513Z,0.85
2018-12-04T04:45:57.964Z,0.28
2018-12-04T04:48:27.531Z,0.33
2018-12-04T04:50:56.880Z,1.22
2018-12-04T04:53:26.279Z,2.05
2018-12-04T04:55:55.675Z,0.65
2018-12-04T04:58:25.104Z,0.30
2018-12-04T05:00:54.432Z,2.37
2018-12-04T05:03:23.879Z,1.52
2018-12-04T05:05:53.250Z,1.25
2018-12-04T05:08:22.716Z,1.15
2018-12-04T05:10:52.098Z,0.20
2018-12-04T05:13:21.513Z,0.20
2018-12-04T05:15:50.917Z,0.98
2018-12-04T05:18:20.295Z,0.37
2018-12-04T05:20:49.722Z,1.10
2018-12-04T05:23:19.556Z,1.22
2018-12-04T05:25:48.949Z,2.98
2018-12-04T05:28:18.274Z,1.92
2018-12-04T05:30:47.679Z,1.47
2018-12-04T05:33:17.737Z,1.55
2018-12-04T05:35:47.365Z,3.15
2018-12-04T05:38:16.804Z,1.65
2018-12-04T05:40:46.118Z,2.20
2018-12-04T05:43:15.540Z,3.05
2018-12-04T05:45:45.076Z,3.67
2018-12-04T05:48:14.473Z,2.75
2018-12-04T05:50:44.058Z,4.40
2018-12-04T05:53:31.282Z,2.67
2018-12-04T05:56:00.810Z,5.60
2018-12-04T05:58:30.272Z,4.28
2018-12-04T06:01:00.086Z,3.92
2018-12-04T06:03:29.541Z,3.45
2018-12-04T06:05:59.025Z,6.42
2018-12-04T06:08:29.083Z,6.12
2018-12-04T06:10:58.532Z,3.77
2018-12-04T06:13:27.874Z,2.27
2018-12-04T06:15:57.232Z,4.25
2018-12-04T06:18:26.640Z,4.05
2018-12-04T06:20:55.961Z,5.25
2018-12-04T06:23:25.587Z,5.80
2018-12-04T06:25:55.051Z,4.05
2018-12-04T06:28:24.494Z,4.28
2018-12-04T06:30:53.876Z,3.77
2018-12-04T06:33:23.302Z,3.92
2018-12-04T06:35:53.095Z,5.08
2018-12-04T06:38:22.540Z,3.98
2018-12-04T06:40:52.024Z,3.70
2018-12-04T06:43:21.533Z,6.08
2018-12-04T06:45:50.925Z,6.83
2018-12-04T06:48:20.357Z,7.25
2018-12-04T06:50:49.845Z,6.45
2018-12-04T06:53:19.168Z,6.12
2018-12-04T06:55:48.835Z,5.17
2018-12-04T06:58:18.162Z,7.40
2018-12-04T07:00:48.107Z,5.10
2018-12-04T07:03:18.389Z,5.30
2018-12-04T07:05:49.988Z,6.60
2018-12-04T07:08:19.368Z,4.95
2018-12-04T07:10:49.495Z,6.67
2018-12-04T07:13:18.819Z,5.62
2018-12-04T07:15:48.406Z,5.12
2018-12-04T07:18:18.840Z,5.10
2018-12-04T07:20:48.285Z,6.42
2018-12-04T07:23:17.759Z,5.37
2018-12-04T07:25:47.150Z,6.05
2018-12-04T07:28:16.685Z,6.90
2018-12-04T07:30:46.043Z,7.62
2018-12-04T07:33:15.496Z,6.08
2018-12-04T07:35:45.411Z,4.55
2018-12-04T07:38:14.776Z,5.00
2018-12-04T07:40:44.238Z,6.50
2018-12-04T07:43:13.562Z,7.22
2018-12-04T07:45:43.056Z,7.47
2018-12-04T07:48:12.550Z,7.33
2018-12-04T07:50:42.096Z,5.13
2018-12-04T07:53:11.583Z,5.08
2018-12-04T07:55:43.096Z,5.10
2018-12-04T07:58:12.636Z,5.45
2018-12-04T08:00:42.084Z,6.22
2018-12-04T08:03:11.482Z,5.70
2018-12-04T08:05:40.947Z,8.67
2018-12-04T08:08:10.356Z,5.95
2018-12-04T08:10:40.203Z,3.83
2018-12-04T08:13:09.539Z,6.83
2018-12-04T08:15:39.515Z,3.40
2018-12-04T08:18:09.926Z,4.22
2018-12-04T08:20:39.366Z,6.90
2018-12-04T08:23:08.844Z,4.03
2018-12-04T08:25:39.215Z,7.35
2018-12-04T08:28:08.598Z,4.72
2018-12-04T08:30:38.202Z,5.08
2018-12-04T08:33:07.566Z,6.37
2018-12-04T08:35:37.383Z,6.50
2018-12-04T08:38:06.815Z,7.72
2018-12-04T08:40:36.130Z,4.97
2018-12-04T08:43:05.661Z,6.90
2018-12-04T08:45:35.111Z,5.40
2018-12-04T08:48:05.147Z,6.70
2018-12-04T08:50:34.703Z,5.42
2018-12-04T08:53:04.093Z,4.05
2018-12-04T08:55:33.575Z,4.62
2018-12-04T08:58:03.091Z,3.52
2018-12-04T09:00:32.529Z,4.97
2018-12-04T09:03:01.939Z,3.20
2018-12-04T09:05:31.259Z,4.42
2018-12-04T09:08:00.711Z,5.05
2018-12-04T09:10:30.207Z,6.03
2018-12-04T09:12:59.632Z,7.63
2018-12-04T09:15:29.938Z,9.28
2018-12-04T09:17:59.394Z,4.70
2018-12-04T09:20:28.865Z,8.10
2018-12-04T09:22:58.446Z,4.73
2018-12-04T09:25:28.184Z,6.45
2018-12-04T09:27:57.703Z,6.33
2018-12-04T09:30:27.132Z,6.30
2018-12-04T09:32:56.536Z,6.05
2018-12-04T09:35:25.994Z,4.70
2018-12-04T09:37:55.335Z,4.70
2018-12-04T09:40:24.862Z,6.10
2018-12-04T09:42:54.355Z,4.28
2018-12-04T09:45:24.356Z,5.33
2018-12-04T09:47:54.051Z,5.50
2018-12-04T09:50:23.397Z,4.08
2018-12-04T09:52:52.916Z,5.33
2018-12-04T09:55:22.409Z,7.55
2018-12-04T09:57:51.923Z,5.50
2018-12-04T10:00:21.391Z,4.03
2018-12-04T10:02:50.741Z,3.62
2018-12-04T10:05:20.132Z,4.10
2018-12-04T10:07:50.129Z,3.50
2018-12-04T10:10:20.508Z,5.90
2018-12-04T10:12:50.078Z,5.60
2018-12-04T10:15:19.648Z,3.83
2018-12-04T10:17:49.176Z,7.00
2018-12-04T10:20:18.640Z,6.37
2018-12-04T10:22:48.159Z,5.20
2018-12-04T10:25:17.516Z,7.25
2018-12-04T10:27:47.395Z,7.20
2018-12-04T10:30:17.110Z,5.50
2018-12-04T10:32:50.625Z,5.90
2018-12-04T10:35:20.900Z,5.83
2018-12-04T10:37:50.569Z,4.20
2018-12-04T10:40:20.052Z,7.83
2018-12-04T10:42:49.993Z,3.80
2018-12-04T10:45:19.581Z,5.47
2018-12-04T10:47:49.077Z,5.22
2018-12-04T10:50:18.558Z,6.12
2018-12-04T10:52:48.092Z,6.37
2018-12-04T10:55:17.473Z,5.40
2018-12-04T10:57:46.894Z,5.97
2018-12-04T11:00:21.658Z,3.30
2018-12-04T11:02:51.147Z,3.90
2018-12-04T11:05:20.760Z,10.28
2018-12-04T11:07:50.289Z,8.58
2018-12-04T11:10:19.660Z,6.15
2018-12-04T11:12:49.203Z,6.03
2018-12-04T11:15:18.615Z,5.93
2018-12-04T11:17:47.953Z,5.58
2018-12-04T11:20:17.315Z,4.72
2018-12-04T11:22:46.835Z,5.87
2018-12-04T11:25:16.197Z,4.97
2018-12-04T11:27:45.777Z,6.03
2018-12-04T11:30:15.139Z,7.30
2018-12-04T11:32:44.670Z,7.15
2018-12-04T11:35:14.147Z,5.47
2018-12-04T11:37:43.655Z,4.60
2018-12-04T11:40:13.217Z,5.70
2018-12-04T11:42:42.682Z,8.68
2018-12-04T11:45:12.079Z,6.12
2018-12-04T11:47:41.459Z,8.18
2018-12-04T11:50:11.123Z,4.40
2018-12-04T11:52:40.579Z,5.22
2018-12-04T11:55:10.131Z,5.20
2018-12-04T11:57:40.122Z,7.12
2018-12-04T12:00:18.601Z,4.90
2018-12-04T12:02:48.343Z,4.65
2018-12-04T12:05:17.721Z,4.75
2018-12-04T12:07:47.062Z,6.60
2018-12-04T12:10:16.675Z,9.50
2018-12-04T12:12:46.213Z,6.40
2018-12-04T12:15:18.056Z,6.00
2018-12-04T12:17:47.040Z,6.28
2018-12-04T12:20:16.364Z,5.08
2018-12-04T12:22:45.763Z,5.22
2018-12-04T12:25:15.207Z,5.72
2018-12-04T12:27:44.584Z,3.90
2018-12-04T12:30:14.082Z,5.53
2018-12-04T12:32:43.540Z,5.20
2018-12-04T12:35:13.089Z,2.83
2018-12-04T12:37:42.427Z,3.98
2018-12-04T12:40:11.948Z,5.62
2018-12-04T12:42:41.410Z,3.67
2018-12-04T12:45:11.619Z,7.03
2018-12-04T12:47:40.939Z,4.50
2018-12-04T12:50:11.528Z,7.58
2018-12-04T12:52:40.857Z,5.67
2018-12-04T12:55:10.217Z,4.80
2018-12-04T12:57:39.704Z,4.58
2018-12-04T13:00:10.573Z,4.90
2018-12-04T13:02:41.311Z,3.92
2018-12-04T13:05:11.019Z,6.20
2018-12-04T13:07:40.541Z,4.55
2018-12-04T13:10:11.572Z,3.92
2018-12-04T13:12:40.970Z,4.15
2018-12-04T13:15:10.466Z,6.35
2018-12-04T13:17:39.859Z,4.63
2018-12-04T13:20:09.568Z,5.83
2018-12-04T13:22:38.956Z,6.03
2018-12-04T13:25:08.831Z,5.07
2018-12-04T13:27:38.329Z,5.05
2018-12-04T13:30:09.410Z,4.63
2018-12-04T13:32:38.877Z,4.55
2018-12-04T13:35:08.603Z,4.72
2018-12-04T13:37:38.116Z,7.83
2018-12-04T13:40:08.828Z,6.50
2018-12-04T13:42:38.796Z,4.27
2018-12-04T13:45:08.905Z,7.70
2018-12-04T13:47:38.428Z,5.93
2018-12-04T13:50:08.097Z,6.17
2018-12-04T13:52:37.608Z,8.48
2018-12-04T13:55:07.260Z,2.75
2018-12-04T13:57:36.778Z,5.62
2018-12-04T14:00:08.184Z,3.60
2018-12-04T14:02:37.603Z,6.25
2018-12-04T14:05:09.025Z,5.37
2018-12-04T14:07:38.611Z,4.22
2018-12-04T14:10:10.309Z,4.10
2018-12-04T14:12:39.953Z,5.23
2018-12-04T14:15:09.978Z,4.05
2018-12-04T14:17:39.562Z,4.43
2018-12-04T14:20:10.148Z,4.78
2018-12-04T14:22:39.503Z,2.95
2018-12-04T14:25:09.118Z,3.87
2018-12-04T14:27:38.518Z,4.47
2018-12-04T14:30:11.767Z,3.90
2018-12-04T14:32:41.616Z,5.40
2018-12-04T14:35:11.170Z,8.55
2018-12-04T14:37:40.664Z,5.60
2018-12-04T14:40:10.474Z,6.87
2018-12-04T14:42:39.895Z,4.85
2018-12-04T14:45:09.614Z,3.35
2018-12-04T14:47:39.070Z,4.93
2018-12-04T14:50:10.532Z,7.03
2018-12-04T14:52:40.074Z,6.87
2018-12-04T14:55:09.872Z,6.70
2018-12-04T14:57:39.306Z,4.63
2018-12-04T15:00:11.357Z,6.35
2018-12-04T15:02:40.889Z,6.87
2018-12-04T15:05:10.918Z,6.53
2018-12-04T15:07:40.540Z,6.20
2018-12-04T15:10:11.725Z,6.30
2018-12-04T15:12:41.147Z,5.58
2018-12-04T15:15:10.672Z,9.07
2018-12-04T15:17:40.070Z,5.73
2018-12-04T15:20:10.076Z,8.00
2018-12-04T15:22:39.563Z,5.93
2018-12-04T15:25:09.328Z,5.20
2018-12-04T15:27:38.813Z,4.63
2018-12-04T15:30:09.288Z,6.53
2018-12-04T15:32:38.872Z,7.37
2018-12-04T15:35:08.587Z,7.12
2018-12-04T15:37:38.186Z,6.05
2018-12-04T15:40:08.666Z,4.83
2018-12-04T15:42:38.233Z,4.95
2018-12-04T15:45:08.111Z,3.27
2018-12-04T15:47:37.761Z,4.22
2018-12-04T15:50:08.721Z,4.40
2018-12-04T15:52:38.140Z,7.27
2018-12-04T15:55:08.255Z,5.80
2018-12-04T15:57:37.747Z,7.53
2018-12-04T16:00:09.951Z,6.33
2018-12-04T16:02:40.031Z,4.67
2018-12-04T16:05:11.066Z,6.03
2018-12-04T16:07:40.575Z,6.30
2018-12-04T16:10:13.815Z,6.77
2018-12-04T16:12:43.320Z,6.30
2018-12-04T16:15:12.986Z,7.47
2018-12-04T16:17:42.408Z,4.83
2018-12-04T16:20:12.051Z,6.87
2018-12-04T16:22:41.502Z,6.63
2018-12-04T16:25:11.148Z,4.67
2018-12-04T16:27:40.577Z,7.60
2018-12-04T16:30:11.039Z,7.97
2018-12-04T16:32:40.551Z,6.53
2018-12-04T16:35:10.295Z,7.03
2018-12-04T16:37:39.756Z,5.37
2018-12-04T16:40:09.778Z,7.67
2018-12-04T16:42:39.205Z,5.57
2018-12-04T16:45:09.082Z,4.97
2018-12-04T16:47:38.585Z,6.23
2018-12-04T16:50:08.167Z,6.20
2018-12-04T16:52:37.539Z,7.37
2018-12-04T16:55:08.085Z,5.87
2018-12-04T16:57:37.535Z,7.15
2018-12-04T17:00:09.734Z,8.67
2018-12-04T17:02:39.136Z,6.37
2018-12-04T17:05:10.740Z,4.80
2018-12-04T17:07:40.139Z,8.73
2018-12-04T17:10:09.775Z,6.63
2018-12-04T17:12:39.299Z,7.33
2018-12-04T17:15:09.195Z,11.43
2018-12-04T17:17:39.128Z,7.13
2018-12-04T17:20:09.541Z,10.63
2018-12-04T17:22:38.951Z,9.37
2018-12-04T17:25:09.115Z,5.53
2018-12-04T17:27:38.864Z,6.23
2018-12-04T17:30:10.715Z,8.93
2018-12-04T17:32:40.308Z,4.87
2018-12-04T17:35:09.936Z,4.40
2018-12-04T17:37:39.485Z,5.37
2018-12-04T17:40:09.348Z,5.80
2018-12-04T17:42:40.272Z,8.53
2018-12-04T17:45:09.855Z,7.13
2018-12-04T17:47:39.290Z,7.80
2018-12-04T17:50:10.776Z,6.73
2018-12-04T17:52:40.379Z,5.57
2018-12-04T17:55:09.857Z,5.50
2018-12-04T17:57:39.346Z,8.13
2018-12-04T18:00:11.312Z,8.23
2018-12-04T18:02:40.930Z,6.43
2018-12-04T18:05:10.883Z,5.53
2018-12-04T18:07:40.437Z,5.58
2018-12-04T18:10:10.462Z,6.10
2018-12-04T18:12:39.929Z,5.03
2018-12-04T18:15:09.835Z,7.72
2018-12-04T18:17:39.459Z,7.93
2018-12-04T18:20:09.046Z,7.63
2018-12-04T18:22:38.580Z,5.80
2018-12-04T18:25:08.100Z,8.00
2018-12-04T18:27:38.127Z,6.47
2018-12-04T18:30:08.539Z,8.73
2018-12-04T18:32:37.972Z,8.80
2018-12-04T18:35:07.887Z,5.57
2018-12-04T18:37:37.741Z,4.42
2018-12-04T18:40:08.228Z,9.13
2018-12-04T18:42:37.633Z,4.93
2018-12-04T18:45:08.933Z,5.37
2018-12-04T18:47:38.305Z,8.03
2018-12-04T18:50:10.587Z,8.60
2018-12-04T18:52:41.042Z,7.33
2018-12-04T18:55:12.593Z,6.43
2018-12-04T18:57:41.975Z,6.87
2018-12-04T19:00:12.745Z,6.10
2018-12-04T19:02:46.988Z,4.63
2018-12-04T19:05:17.632Z,7.27
2018-12-04T19:07:47.227Z,8.23
2018-12-04T19:10:17.943Z,6.33
2018-12-04T19:12:47.609Z,6.00
2018-12-04T19:15:18.215Z,8.13
2018-12-04T19:17:47.942Z,5.87
2018-12-04T19:20:17.438Z,6.27
2018-12-04T19:22:47.159Z,6.23
2018-12-04T19:25:16.716Z,11.03
2018-12-04T19:27:47.247Z,7.37
2018-12-04T19:30:17.210Z,5.03
2018-12-04T19:32:47.108Z,5.20
2018-12-04T19:35:17.315Z,7.67
2018-12-04T19:37:46.876Z,9.07
2018-12-04T19:40:16.745Z,9.60
2018-12-04T19:42:47.017Z,5.40
2018-12-04T19:45:16.997Z,4.77
2018-12-04T19:47:46.762Z,6.63
2018-12-04T19:50:16.988Z,4.00
2018-12-04T19:52:47.799Z,5.03
2018-12-04T19:55:17.351Z,9.93
2018-12-04T19:57:47.179Z,4.47
2018-12-04T20:00:17.742Z,7.63
2018-12-04T20:02:47.384Z,7.83
2018-12-04T20:05:17.103Z,9.60
2018-12-04T20:07:47.634Z,6.17
2018-12-04T20:10:17.177Z,9.20
2018-12-04T20:12:46.744Z,5.27
2018-12-04T20:15:16.223Z,6.23
2018-12-04T20:17:45.864Z,5.80
2018-12-04T20:20:15.389Z,7.43
2018-12-04T20:22:45.472Z,7.20
2018-12-04T20:25:14.965Z,7.23
2018-12-04T20:27:44.375Z,3.77
2018-12-04T20:30:14.402Z,6.93
2018-12-04T20:32:43.918Z,7.17
2018-12-04T20:35:14.088Z,7.43
2018-12-04T20:37:44.366Z,8.28
2018-12-04T20:40:13.726Z,4.87
2018-12-04T20:42:43.910Z,6.77
2018-12-04T20:45:13.445Z,8.93
2018-12-04T20:47:43.287Z,5.07
2018-12-04T20:50:12.732Z,9.47
2018-12-04T20:52:42.323Z,8.23
2018-12-04T20:55:11.815Z,7.13
2018-12-04T20:57:41.612Z,5.43
2018-12-04T21:00:12.739Z,6.25
2018-12-04T21:02:43.244Z,4.63
2018-12-04T21:05:12.910Z,5.77
2018-12-04T21:07:42.996Z,5.10
2018-12-04T21:10:12.550Z,6.83
2018-12-04T21:12:42.108Z,7.03
2018-12-04T21:15:11.608Z,7.13
2018-12-04T21:17:40.999Z,4.50
2018-12-04T21:20:10.403Z,6.20
2018-12-04T21:22:39.917Z,5.37
2018-12-04T21:25:09.333Z,9.07
2018-12-04T21:27:43.993Z,9.10
2018-12-04T21:30:18.847Z,3.33
2018-12-04T21:32:53.566Z,7.20
2018-12-04T21:35:28.142Z,6.93
2018-12-04T21:38:02.787Z,4.43
2018-12-04T21:40:37.581Z,3.70
2018-12-04T21:43:12.190Z,5.90
2018-12-04T21:45:47.413Z,3.67
2018-12-04T21:48:16.906Z,4.97
2018-12-04T21:50:46.397Z,4.10
2018-12-04T21:53:15.783Z,6.13
2018-12-04T21:55:45.312Z,2.83
2018-12-04T21:58:14.900Z,6.60
2018-12-04T22:00:45.337Z,6.77
2018-12-04T22:03:14.836Z,7.33
2018-12-04T22:05:45.287Z,6.30
2018-12-04T22:08:14.648Z,4.47
2018-12-04T22:10:44.087Z,6.00
2018-12-04T22:13:13.479Z,5.70
2018-12-04T22:15:42.883Z,3.70
2018-12-04T22:18:12.391Z,4.73
2018-12-04T22:20:41.896Z,6.63
2018-12-04T22:23:11.303Z,6.73
2018-12-04T22:25:41.914Z,5.00
2018-12-04T22:28:11.353Z,4.63
2018-12-04T22:30:40.760Z,6.87
2018-12-04T22:33:10.262Z,6.27
2018-12-04T22:35:40.634Z,6.60
2018-12-04T22:38:10.035Z,6.50
2018-12-04T22:40:40.048Z,7.57
2018-12-04T22:43:10.039Z,7.73
2018-12-04T22:45:39.590Z,5.53
2018-12-04T22:48:09.142Z,5.17
2018-12-04T22:50:38.581Z,7.90
2018-12-04T22:53:07.947Z,4.00
2018-12-04T22:55:37.394Z,5.20
2018-12-04T22:58:06.728Z,6.37
2018-12-04T23:00:41.965Z,5.20
2018-12-04T23:03:11.879Z,6.80
2018-12-04T23:05:41.359Z,5.03
2018-12-04T23:08:10.755Z,4.97
2018-12-04T23:10:40.158Z,4.43
2018-12-04T23:13:09.500Z,4.90
2018-12-04T23:15:39.001Z,7.30
2018-12-04T23:18:08.560Z,5.70
2018-12-04T23:20:38.136Z,8.47
2018-12-04T23:23:07.476Z,5.40
2018-12-04T23:25:36.810Z,3.93
2018-12-04T23:28:06.281Z,5.53
2018-12-04T23:30:35.849Z,5.90
2018-12-04T23:33:05.465Z,3.83
2018-12-04T23:35:35.175Z,5.20
2018-12-04T23:38:04.827Z,6.23
2018-12-04T23:40:34.156Z,5.87
2018-12-04T23:43:03.600Z,4.20
2018-12-04T23:45:33.343Z,8.80
2018-12-04T23:54:03.458Z,8.80
2018-12-04T23:56:32.883Z,6.47
2018-12-04T23:59:02.439Z,6.17
